^^
Your Local Weather - Clay, NY Station Historical Data
Daily Summary for February 19, 2018 Units:  Both    English   Metric
« Previous Day
Next Day »
Daily Weekly Monthly Yearly Custom
  High: Low: Average:
Temperature: 44.5 °F /  6.9 °C 25.4 °F /  -3.7 °C 37.7 °F /  3.2 °C
Dew Point: 42.5 °F /  5.8 °C 19.8 °F /  -6.8 °C 31 °F /  -0.6 °C
Humidity: 94% 61% 78%
Wind Speed: 9.0mph /  14.5km/h - 3.8mph /  6.1km/h
Wind Gust: 15.0mph /  24.1km/h - -
Wind- - ESE
Pressure: 30.33 in /  1027 hPa 30.08 in /  1018.5 hPa -
Precipitation: 0.36 in /  9.14 mm    
Historical Graphs
 
 
Tabular Data for February 19, 2018
Time Temperature Dew Point Pressure Wind Wind Speed Wind Gust Humidity Rainfall Rate (Hourly) solar
00:02 28.8 °F /  -1.8 °C 21.2 °F /  -6 °C 30.33in /  1027hPa East 1.0mph /  1.6km/h 2.0mph /  3.2km/h 73% 0.00in /  0mm 0 W/m2
00:08 28.7 °F /  -1.8 °C 20.8 °F /  -6.2 °C 30.33in /  1027hPa East 1.0mph /  1.6km/h 2.0mph /  3.2km/h 72% 0.00in /  0mm 0 W/m2
00:14 28.5 °F /  -1.9 °C 20.6 °F /  -6.3 °C 30.33in /  1027hPa East 1.0mph /  1.6km/h 2.0mph /  3.2km/h 72% 0.00in /  0mm 0 W/m2
00:20 28.0 °F /  -2.2 °C 20.5 °F /  -6.4 °C 30.33in /  1027hPa East 1.0mph /  1.6km/h 1.0mph /  1.6km/h 73% 0.00in /  0mm 0 W/m2
00:26 27.4 °F /  -2.6 °C 20.5 °F /  -6.4 °C 30.32in /  1026.6hPa East 1.0mph /  1.6km/h 1.0mph /  1.6km/h 75% 0.00in /  0mm 0 W/m2
00:32 27.2 °F /  -2.7 °C 20.3 °F /  -6.5 °C 30.32in /  1026.6hPa East 1.0mph /  1.6km/h 3.0mph /  4.8km/h 75% 0.00in /  0mm 0 W/m2
00:38 27.2 °F /  -2.7 °C 20.6 °F /  -6.3 °C 30.31in /  1026.3hPa East 1.0mph /  1.6km/h 3.0mph /  4.8km/h 76% 0.00in /  0mm 0 W/m2
00:44 27.3 °F /  -2.6 °C 20.7 °F /  -6.3 °C 30.31in /  1026.3hPa East 1.0mph /  1.6km/h 2.0mph /  3.2km/h 76% 0.00in /  0mm 0 W/m2
00:50 27.0 °F /  -2.8 °C 20.7 °F /  -6.3 °C 30.31in /  1026.3hPa ENE 2.0mph /  3.2km/h 3.0mph /  4.8km/h 77% 0.00in /  0mm 0 W/m2
00:56 26.8 °F /  -2.9 °C 20.6 °F /  -6.3 °C 30.31in /  1026.3hPa ENE 2.0mph /  3.2km/h 3.0mph /  4.8km/h 77% 0.00in /  0mm 0 W/m2
01:02 26.9 °F /  -2.8 °C 20.7 °F /  -6.3 °C 30.31in /  1026.3hPa ENE 2.0mph /  3.2km/h 3.0mph /  4.8km/h 77% 0.00in /  0mm 0 W/m2
01:08 27.4 °F /  -2.6 °C 20.8 °F /  -6.2 °C 30.31in /  1026.3hPa ENE 2.0mph /  3.2km/h 3.0mph /  4.8km/h 76% 0.00in /  0mm 0 W/m2
01:14 27.2 °F /  -2.7 °C 20.6 °F /  -6.3 °C 30.30in /  1026hPa ENE 2.0mph /  3.2km/h 3.0mph /  4.8km/h 76% 0.00in /  0mm 0 W/m2
01:20 27.2 °F /  -2.7 °C 20.6 °F /  -6.3 °C 30.30in /  1026hPa ENE 2.0mph /  3.2km/h 2.0mph /  3.2km/h 76% 0.00in /  0mm 0 W/m2
01:26 27.1 °F /  -2.7 °C 20.5 °F /  -6.4 °C 30.30in /  1026hPa ENE 2.0mph /  3.2km/h 2.0mph /  3.2km/h 76% 0.00in /  0mm 0 W/m2
01:32 26.6 °F /  -3 °C 20.1 °F /  -6.6 °C 30.31in /  1026.3hPa ENE 1.0mph /  1.6km/h 1.0mph /  1.6km/h 76% 0.00in /  0mm 0 W/m2
01:38 26.2 °F /  -3.2 °C 20.0 °F /  -6.7 °C 30.31in /  1026.3hPa ENE 1.0mph /  1.6km/h 2.0mph /  3.2km/h 77% 0.00in /  0mm 0 W/m2
01:44 26.1 °F /  -3.3 °C 20.2 °F /  -6.6 °C 30.31in /  1026.3hPa NE 1.0mph /  1.6km/h 3.0mph /  4.8km/h 78% 0.00in /  0mm 0 W/m2
01:50 26.0 °F /  -3.3 °C 20.1 °F /  -6.6 °C 30.30in /  1026hPa ENE 2.0mph /  3.2km/h 3.0mph /  4.8km/h 78% 0.00in /  0mm 0 W/m2
01:56 26.7 °F /  -2.9 °C 20.8 °F /  -6.2 °C 30.30in /  1026hPa ENE 2.0mph /  3.2km/h 3.0mph /  4.8km/h 78% 0.00in /  0mm 0 W/m2
02:02 26.5 °F /  -3.1 °C 20.3 °F /  -6.5 °C 30.31in /  1026.3hPa East 2.0mph /  3.2km/h 3.0mph /  4.8km/h 77% 0.00in /  0mm 0 W/m2
02:08 26.3 °F /  -3.2 °C 20.1 °F /  -6.6 °C 30.30in /  1026hPa ENE 2.0mph /  3.2km/h 3.0mph /  4.8km/h 77% 0.00in /  0mm 0 W/m2
02:14 26.5 °F /  -3.1 °C 20.3 °F /  -6.5 °C 30.30in /  1026hPa East 3.0mph /  4.8km/h 3.0mph /  4.8km/h 77% 0.00in /  0mm 0 W/m2
02:20 26.3 °F /  -3.2 °C 20.4 °F /  -6.4 °C 30.29in /  1025.6hPa ENE 3.0mph /  4.8km/h 4.0mph /  6.4km/h 78% 0.00in /  0mm 0 W/m2
02:26 26.5 °F /  -3.1 °C 20.3 °F /  -6.5 °C 30.29in /  1025.6hPa ENE 3.0mph /  4.8km/h 4.0mph /  6.4km/h 77% 0.00in /  0mm 0 W/m2
02:32 25.9 °F /  -3.4 °C 20.0 °F /  -6.7 °C 30.29in /  1025.6hPa ENE 3.0mph /  4.8km/h 4.0mph /  6.4km/h 78% 0.00in /  0mm 0 W/m2
02:38 26.0 °F /  -3.3 °C 20.1 °F /  -6.6 °C 30.29in /  1025.6hPa East 3.0mph /  4.8km/h 4.0mph /  6.4km/h 78% 0.00in /  0mm 0 W/m2
02:44 26.3 °F /  -3.2 °C 20.4 °F /  -6.4 °C 30.28in /  1025.3hPa ENE 3.0mph /  4.8km/h 3.0mph /  4.8km/h 78% 0.00in /  0mm 0 W/m2
02:50 26.1 °F /  -3.3 °C 20.2 °F /  -6.6 °C 30.28in /  1025.3hPa ENE 3.0mph /  4.8km/h 3.0mph /  4.8km/h 78% 0.00in /  0mm 0 W/m2
02:56 26.5 °F /  -3.1 °C 20.6 °F /  -6.3 °C 30.27in /  1024.9hPa ENE 3.0mph /  4.8km/h 6.0mph /  9.7km/h 78% 0.00in /  0mm 0 W/m2
03:02 26.2 °F /  -3.2 °C 20.3 °F /  -6.5 °C 30.28in /  1025.3hPa ENE 1.0mph /  1.6km/h 2.0mph /  3.2km/h 78% 0.00in /  0mm 0 W/m2
03:08 26.0 °F /  -3.3 °C 20.4 °F /  -6.4 °C 30.28in /  1025.3hPa ENE 1.0mph /  1.6km/h 2.0mph /  3.2km/h 79% 0.00in /  0mm 0 W/m2
03:14 26.3 °F /  -3.2 °C 20.7 °F /  -6.3 °C 30.28in /  1025.3hPa ENE 1.0mph /  1.6km/h 1.0mph /  1.6km/h 79% 0.00in /  0mm 0 W/m2
03:20 26.1 °F /  -3.3 °C 20.5 °F /  -6.4 °C 30.28in /  1025.3hPa ENE 1.0mph /  1.6km/h 1.0mph /  1.6km/h 79% 0.00in /  0mm 0 W/m2
03:26 25.4 °F /  -3.7 °C 19.8 °F /  -6.8 °C 30.28in /  1025.3hPa ENE 1.0mph /  1.6km/h 3.0mph /  4.8km/h 79% 0.00in /  0mm 0 W/m2
03:32 25.5 °F /  -3.6 °C 20.2 °F /  -6.6 °C 30.27in /  1024.9hPa NNE 1.0mph /  1.6km/h 5.0mph /  8km/h 80% 0.00in /  0mm 0 W/m2
03:38 26.4 °F /  -3.1 °C 21.4 °F /  -5.9 °C 30.27in /  1024.9hPa ENE 2.0mph /  3.2km/h 5.0mph /  8km/h 81% 0.00in /  0mm 0 W/m2
03:44 27.2 °F /  -2.7 °C 21.8 °F /  -5.7 °C 30.26in /  1024.6hPa SE 3.0mph /  4.8km/h 7.0mph /  11.3km/h 80% 0.00in /  0mm 0 W/m2
03:50 27.6 °F /  -2.4 °C 21.9 °F /  -5.6 °C 30.26in /  1024.6hPa SE 2.0mph /  3.2km/h 2.0mph /  3.2km/h 79% 0.00in /  0mm 0 W/m2
03:56 29.2 °F /  -1.6 °C 23.2 °F /  -4.9 °C 30.27in /  1024.9hPa ESE 3.0mph /  4.8km/h 10.0mph /  16.1km/h 78% 0.00in /  0mm 0 W/m2
04:04 32.8 °F /  0.4 °C 24.4 °F /  -4.2 °C 30.26in /  1024.6hPa SE 5.0mph /  8km/h 8.0mph /  12.9km/h 71% 0.00in /  0mm 0 W/m2
04:10 34.6 °F /  1.4 °C 25.1 °F /  -3.8 °C 30.26in /  1024.6hPa SSE 5.0mph /  8km/h 8.0mph /  12.9km/h 68% 0.00in /  0mm 0 W/m2
04:16 35.9 °F /  2.2 °C 25.6 °F /  -3.6 °C 30.26in /  1024.6hPa SSE 7.0mph /  11.3km/h 8.0mph /  12.9km/h 66% 0.00in /  0mm 0 W/m2
04:22 35.5 °F /  1.9 °C 24.9 °F /  -3.9 °C 30.26in /  1024.6hPa SE 6.0mph /  9.7km/h 6.0mph /  9.7km/h 65% 0.00in /  0mm 0 W/m2
04:28 35.7 °F /  2.1 °C 25.4 °F /  -3.7 °C 30.26in /  1024.6hPa ESE 5.0mph /  8km/h 6.0mph /  9.7km/h 66% 0.00in /  0mm 0 W/m2
04:34 35.9 °F /  2.2 °C 25.3 °F /  -3.7 °C 30.26in /  1024.6hPa SE 5.0mph /  8km/h 6.0mph /  9.7km/h 65% 0.00in /  0mm 0 W/m2
04:40 35.7 °F /  2.1 °C 25.1 °F /  -3.8 °C 30.27in /  1024.9hPa SSE 5.0mph /  8km/h 5.0mph /  8km/h 65% 0.00in /  0mm 0 W/m2
04:46 35.6 °F /  2 °C 25.0 °F /  -3.9 °C 30.27in /  1024.9hPa SSW 5.0mph /  8km/h 7.0mph /  11.3km/h 65% 0.00in /  0mm 0 W/m2
04:52 36.1 °F /  2.3 °C 25.5 °F /  -3.6 °C 30.26in /  1024.6hPa SSE 6.0mph /  9.7km/h 7.0mph /  11.3km/h 65% 0.00in /  0mm 0 W/m2
04:58 36.4 °F /  2.4 °C 25.4 °F /  -3.7 °C 30.26in /  1024.6hPa SSE 7.0mph /  11.3km/h 9.0mph /  14.5km/h 64% 0.00in /  0mm 0 W/m2
05:04 36.4 °F /  2.4 °C 25.0 °F /  -3.9 °C 30.26in /  1024.6hPa SSE 7.0mph /  11.3km/h 13.0mph /  20.9km/h 63% 0.00in /  0mm 0 W/m2
05:10 36.6 °F /  2.6 °C 25.2 °F /  -3.8 °C 30.26in /  1024.6hPa SE 6.0mph /  9.7km/h 9.0mph /  14.5km/h 63% 0.00in /  0mm 0 W/m2
05:16 36.8 °F /  2.7 °C 25.0 °F /  -3.9 °C 30.26in /  1024.6hPa SE 7.0mph /  11.3km/h 11.0mph /  17.7km/h 62% 0.00in /  0mm 0 W/m2
05:22 36.9 °F /  2.7 °C 25.5 °F /  -3.6 °C 30.26in /  1024.6hPa SE 8.0mph /  12.9km/h 13.0mph /  20.9km/h 63% 0.00in /  0mm 0 W/m2
05:28 37.1 °F /  2.8 °C 25.3 °F /  -3.7 °C 30.26in /  1024.6hPa SSE 9.0mph /  14.5km/h 13.0mph /  20.9km/h 62% 0.00in /  0mm 0 W/m2
05:34 37.0 °F /  2.8 °C 25.2 °F /  -3.8 °C 30.26in /  1024.6hPa SSE 8.0mph /  12.9km/h 14.0mph /  22.5km/h 62% 0.00in /  0mm 0 W/m2
05:40 37.0 °F /  2.8 °C 25.2 °F /  -3.8 °C 30.26in /  1024.6hPa South 8.0mph /  12.9km/h 8.0mph /  12.9km/h 62% 0.00in /  0mm 0 W/m2
05:46 36.8 °F /  2.7 °C 25.0 °F /  -3.9 °C 30.26in /  1024.6hPa SSE 8.0mph /  12.9km/h 11.0mph /  17.7km/h 62% 0.00in /  0mm 0 W/m2
05:52 36.8 °F /  2.7 °C 25.0 °F /  -3.9 °C 30.25in /  1024.3hPa SSE 8.0mph /  12.9km/h 13.0mph /  20.9km/h 62% 0.00in /  0mm 0 W/m2
05:58 36.8 °F /  2.7 °C 25.4 °F /  -3.7 °C 30.25in /  1024.3hPa SE 8.0mph /  12.9km/h 13.0mph /  20.9km/h 63% 0.00in /  0mm 0 W/m2
06:04 36.8 °F /  2.7 °C 25.4 °F /  -3.7 °C 30.26in /  1024.6hPa South 8.0mph /  12.9km/h 10.0mph /  16.1km/h 63% 0.00in /  0mm 0 W/m2
06:10 36.7 °F /  2.6 °C 25.3 °F /  -3.7 °C 30.24in /  1023.9hPa SSE 8.0mph /  12.9km/h 12.0mph /  19.3km/h 63% 0.00in /  0mm 0 W/m2
06:16 36.6 °F /  2.6 °C 25.2 °F /  -3.8 °C 30.26in /  1024.6hPa SSE 7.0mph /  11.3km/h 12.0mph /  19.3km/h 63% 0.00in /  0mm 0 W/m2
06:22 36.6 °F /  2.6 °C 25.2 °F /  -3.8 °C 30.26in /  1024.6hPa SSE 7.0mph /  11.3km/h 7.0mph /  11.3km/h 63% 0.00in /  0mm 0 W/m2
06:28 36.7 °F /  2.6 °C 25.3 °F /  -3.7 °C 30.25in /  1024.3hPa South 8.0mph /  12.9km/h 9.0mph /  14.5km/h 63% 0.00in /  0mm 0 W/m2
06:34 36.6 °F /  2.6 °C 25.6 °F /  -3.6 °C 30.24in /  1023.9hPa SSE 8.0mph /  12.9km/h 11.0mph /  17.7km/h 64% 0.00in /  0mm 0 W/m2
06:40 36.5 °F /  2.5 °C 25.5 °F /  -3.6 °C 30.26in /  1024.6hPa SSE 7.0mph /  11.3km/h 9.0mph /  14.5km/h 64% 0.00in /  0mm 0 W/m2
06:46 36.4 °F /  2.4 °C 25.4 °F /  -3.7 °C 30.24in /  1023.9hPa ESE 6.0mph /  9.7km/h 11.0mph /  17.7km/h 64% 0.00in /  0mm 0 W/m2
06:52 36.4 °F /  2.4 °C 25.4 °F /  -3.7 °C 30.26in /  1024.6hPa SSE 7.0mph /  11.3km/h 8.0mph /  12.9km/h 64% 0.00in /  0mm 5 W/m2
06:58 36.2 °F /  2.3 °C 25.6 °F /  -3.6 °C 30.25in /  1024.3hPa SSE 6.0mph /  9.7km/h 8.0mph /  12.9km/h 65% 0.00in /  0mm 9 W/m2
07:04 36.2 °F /  2.3 °C 25.6 °F /  -3.6 °C 30.25in /  1024.3hPa SE 6.0mph /  9.7km/h 8.0mph /  12.9km/h 65% 0.00in /  0mm 12 W/m2
07:10 36.4 °F /  2.4 °C 25.7 °F /  -3.5 °C 30.26in /  1024.6hPa South 8.0mph /  12.9km/h 13.0mph /  20.9km/h 65% 0.00in /  0mm 16 W/m2
07:16 36.3 °F /  2.4 °C 25.7 °F /  -3.5 °C 30.26in /  1024.6hPa South 7.0mph /  11.3km/h 13.0mph /  20.9km/h 65% 0.00in /  0mm 21 W/m2
07:22 36.5 °F /  2.5 °C 25.8 °F /  -3.4 °C 30.26in /  1024.6hPa SSE 7.0mph /  11.3km/h 8.0mph /  12.9km/h 65% 0.00in /  0mm 30 W/m2
07:28 36.7 °F /  2.6 °C 26.0 °F /  -3.3 °C 30.27in /  1024.9hPa South 8.0mph /  12.9km/h 8.0mph /  12.9km/h 65% 0.00in /  0mm 42 W/m2
07:34 36.8 °F /  2.7 °C 26.1 °F /  -3.3 °C 30.27in /  1024.9hPa SE 7.0mph /  11.3km/h 12.0mph /  19.3km/h 65% 0.00in /  0mm 47 W/m2
07:40 36.9 °F /  2.7 °C 26.2 °F /  -3.2 °C 30.26in /  1024.6hPa SSE 7.0mph /  11.3km/h 7.0mph /  11.3km/h 65% 0.00in /  0mm 47 W/m2
07:46 36.9 °F /  2.7 °C 26.2 °F /  -3.2 °C 30.26in /  1024.6hPa South 6.0mph /  9.7km/h 10.0mph /  16.1km/h 65% 0.00in /  0mm 53 W/m2
07:52 37.1 °F /  2.8 °C 26.4 °F /  -3.1 °C 30.26in /  1024.6hPa South 6.0mph /  9.7km/h 9.0mph /  14.5km/h 65% 0.00in /  0mm 47 W/m2
07:58 37.2 °F /  2.9 °C 26.5 °F /  -3.1 °C 30.26in /  1024.6hPa SSE 7.0mph /  11.3km/h 9.0mph /  14.5km/h 65% 0.00in /  0mm 53 W/m2
08:04 37.4 °F /  3 °C 26.3 °F /  -3.2 °C 30.26in /  1024.6hPa South 6.0mph /  9.7km/h 10.0mph /  16.1km/h 64% 0.00in /  0mm 111 W/m2
08:10 37.8 °F /  3.2 °C 26.7 °F /  -2.9 °C 30.26in /  1024.6hPa South 6.0mph /  9.7km/h 11.0mph /  17.7km/h 64% 0.00in /  0mm 160 W/m2
08:16 38.0 °F /  3.3 °C 26.9 °F /  -2.8 °C 30.25in /  1024.3hPa South 7.0mph /  11.3km/h 13.0mph /  20.9km/h 64% 0.00in /  0mm 139 W/m2
08:22 38.2 °F /  3.4 °C 26.7 °F /  -2.9 °C 30.24in /  1023.9hPa SSE 9.0mph /  14.5km/h 10.0mph /  16.1km/h 63% 0.00in /  0mm 186 W/m2
08:28 38.6 °F /  3.7 °C 27.1 °F /  -2.7 °C 30.25in /  1024.3hPa SSE 9.0mph /  14.5km/h 10.0mph /  16.1km/h 63% 0.00in /  0mm 213 W/m2
08:34 38.9 °F /  3.8 °C 27.4 °F /  -2.6 °C 30.26in /  1024.6hPa SE 7.0mph /  11.3km/h 14.0mph /  22.5km/h 63% 0.00in /  0mm 243 W/m2
08:40 38.8 °F /  3.8 °C 27.3 °F /  -2.6 °C 30.25in /  1024.3hPa South 9.0mph /  14.5km/h 9.0mph /  14.5km/h 63% 0.00in /  0mm 104 W/m2
08:46 38.9 °F /  3.8 °C 27.4 °F /  -2.6 °C 30.25in /  1024.3hPa South 9.0mph /  14.5km/h 9.0mph /  14.5km/h 63% 0.00in /  0mm 193 W/m2
08:52 39.7 °F /  4.3 °C 28.1 °F /  -2.2 °C 30.25in /  1024.3hPa SSE 8.0mph /  12.9km/h 9.0mph /  14.5km/h 63% 0.00in /  0mm 348 W/m2
08:58 40.0 °F /  4.4 °C 28.0 °F /  -2.2 °C 30.24in /  1023.9hPa SSE 7.0mph /  11.3km/h 11.0mph /  17.7km/h 62% 0.00in /  0mm 246 W/m2
09:04 40.0 °F /  4.4 °C 28.0 °F /  -2.2 °C 30.24in /  1023.9hPa South 6.0mph /  9.7km/h 7.0mph /  11.3km/h 62% 0.00in /  0mm 197 W/m2
09:10 40.4 °F /  4.7 °C 28.4 °F /  -2 °C 30.24in /  1023.9hPa South 6.0mph /  9.7km/h 9.0mph /  14.5km/h 62% 0.00in /  0mm 260 W/m2
09:16 40.6 °F /  4.8 °C 28.6 °F /  -1.9 °C 30.24in /  1023.9hPa SE 7.0mph /  11.3km/h 10.0mph /  16.1km/h 62% 0.00in /  0mm 257 W/m2
09:22 40.6 °F /  4.8 °C 28.6 °F /  -1.9 °C 30.24in /  1023.9hPa SE 7.0mph /  11.3km/h 9.0mph /  14.5km/h 62% 0.00in /  0mm 229 W/m2
09:28 40.7 °F /  4.8 °C 28.7 °F /  -1.8 °C 30.23in /  1023.6hPa ESE 7.0mph /  11.3km/h 15.0mph /  24.1km/h 62% 0.00in /  0mm 206 W/m2
09:34 40.8 °F /  4.9 °C 28.8 °F /  -1.8 °C 30.23in /  1023.6hPa SE 7.0mph /  11.3km/h 8.0mph /  12.9km/h 62% 0.00in /  0mm 139 W/m2
09:40 40.7 °F /  4.8 °C 28.7 °F /  -1.8 °C 30.23in /  1023.6hPa SSE 7.0mph /  11.3km/h 7.0mph /  11.3km/h 62% 0.00in /  0mm 116 W/m2
09:46 40.6 °F /  4.8 °C 29.0 °F /  -1.7 °C 30.23in /  1023.6hPa SSE 7.0mph /  11.3km/h 8.0mph /  12.9km/h 63% 0.00in /  0mm 116 W/m2
09:52 40.6 °F /  4.8 °C 29.0 °F /  -1.7 °C 30.22in /  1023.2hPa South 6.0mph /  9.7km/h 6.0mph /  9.7km/h 63% 0.00in /  0mm 163 W/m2
09:58 40.8 °F /  4.9 °C 29.2 °F /  -1.6 °C 30.21in /  1022.9hPa ESE 6.0mph /  9.7km/h 11.0mph /  17.7km/h 63% 0.00in /  0mm 230 W/m2
10:04 41.2 °F /  5.1 °C 29.5 °F /  -1.4 °C 30.22in /  1023.2hPa SSE 7.0mph /  11.3km/h 7.0mph /  11.3km/h 63% 0.00in /  0mm 246 W/m2
10:10 41.6 °F /  5.3 °C 29.5 °F /  -1.4 °C 30.22in /  1023.2hPa SSE 8.0mph /  12.9km/h 8.0mph /  12.9km/h 62% 0.00in /  0mm 285 W/m2
10:16 42.5 °F /  5.8 °C 30.4 °F /  -0.9 °C 30.22in /  1023.2hPa South 6.0mph /  9.7km/h 8.0mph /  12.9km/h 62% 0.00in /  0mm 315 W/m2
10:22 42.2 °F /  5.7 °C 30.1 °F /  -1.1 °C 30.21in /  1022.9hPa South 6.0mph /  9.7km/h 8.0mph /  12.9km/h 62% 0.00in /  0mm 181 W/m2
10:28 42.0 °F /  5.6 °C 29.9 °F /  -1.2 °C 30.22in /  1023.2hPa SSE 7.0mph /  11.3km/h 8.0mph /  12.9km/h 62% 0.00in /  0mm 207 W/m2
10:34 42.3 °F /  5.7 °C 30.2 °F /  -1 °C 30.23in /  1023.6hPa SE 7.0mph /  11.3km/h 7.0mph /  11.3km/h 62% 0.00in /  0mm 281 W/m2
10:40 42.7 °F /  5.9 °C 30.6 °F /  -0.8 °C 30.21in /  1022.9hPa ESE 7.0mph /  11.3km/h 9.0mph /  14.5km/h 62% 0.00in /  0mm 364 W/m2
10:46 43.1 °F /  6.2 °C 31.0 °F /  -0.6 °C 30.20in /  1022.6hPa SSE 8.0mph /  12.9km/h 9.0mph /  14.5km/h 62% 0.00in /  0mm 288 W/m2
10:52 43.4 °F /  6.3 °C 30.8 °F /  -0.7 °C 30.20in /  1022.6hPa South 7.0mph /  11.3km/h 8.0mph /  12.9km/h 61% 0.00in /  0mm 253 W/m2
10:58 43.8 °F /  6.6 °C 31.6 °F /  -0.2 °C 30.20in /  1022.6hPa South 5.0mph /  8km/h 8.0mph /  12.9km/h 62% 0.00in /  0mm 332 W/m2
11:04 44.0 °F /  6.7 °C 31.4 °F /  -0.3 °C 30.19in /  1022.2hPa South 5.0mph /  8km/h 8.0mph /  12.9km/h 61% 0.00in /  0mm 229 W/m2
11:10 44.0 °F /  6.7 °C 31.8 °F /  -0.1 °C 30.20in /  1022.6hPa SSE 6.0mph /  9.7km/h 13.0mph /  20.9km/h 62% 0.00in /  0mm 243 W/m2
11:16 44.1 °F /  6.7 °C 31.9 °F /  -0.1 °C 30.19in /  1022.2hPa SSE 6.0mph /  9.7km/h 13.0mph /  20.9km/h 62% 0.00in /  0mm 204 W/m2
11:22 44.2 °F /  6.8 °C 32.0 °F /  0 °C 30.19in /  1022.2hPa SSE 7.0mph /  11.3km/h 8.0mph /  12.9km/h 62% 0.00in /  0mm 207 W/m2
11:28 44.3 °F /  6.8 °C 32.1 °F /  0.1 °C 30.19in /  1022.2hPa SSE 6.0mph /  9.7km/h 10.0mph /  16.1km/h 62% 0.00in /  0mm 183 W/m2
11:34 44.4 °F /  6.9 °C 32.2 °F /  0.1 °C 30.19in /  1022.2hPa SSE 6.0mph /  9.7km/h 11.0mph /  17.7km/h 62% 0.00in /  0mm 141 W/m2
11:40 44.4 °F /  6.9 °C 32.2 °F /  0.1 °C 30.18in /  1021.9hPa SE 5.0mph /  8km/h 5.0mph /  8km/h 62% 0.00in /  0mm 91 W/m2
11:46 44.4 °F /  6.9 °C 32.6 °F /  0.3 °C 30.18in /  1021.9hPa South 4.0mph /  6.4km/h 5.0mph /  8km/h 63% 0.00in /  0mm 102 W/m2
11:52 44.3 °F /  6.8 °C 32.9 °F /  0.5 °C 30.17in /  1021.6hPa South 5.0mph /  8km/h 5.0mph /  8km/h 64% 0.00in /  0mm 121 W/m2
11:58 44.0 °F /  6.7 °C 33.4 °F /  0.8 °C 30.17in /  1021.6hPa SE 6.0mph /  9.7km/h 9.0mph /  14.5km/h 66% 0.00in /  0mm 118 W/m2
12:04 43.5 °F /  6.4 °C 33.6 °F /  0.9 °C 30.16in /  1021.2hPa SE 7.0mph /  11.3km/h 9.0mph /  14.5km/h 68% 0.00in /  0mm 141 W/m2
12:10 43.5 °F /  6.4 °C 34.0 °F /  1.1 °C 30.16in /  1021.2hPa SSE 7.0mph /  11.3km/h 7.0mph /  11.3km/h 69% 0.00in /  0mm 186 W/m2
12:16 43.6 °F /  6.4 °C 34.1 °F /  1.2 °C 30.16in /  1021.2hPa SSE 7.0mph /  11.3km/h 10.0mph /  16.1km/h 69% 0.00in /  0mm 190 W/m2
12:22 43.6 °F /  6.4 °C 34.1 °F /  1.2 °C 30.15in /  1020.9hPa SSW 7.0mph /  11.3km/h 7.0mph /  11.3km/h 69% 0.00in /  0mm 128 W/m2
12:28 43.7 °F /  6.5 °C 34.2 °F /  1.2 °C 30.14in /  1020.5hPa South 8.0mph /  12.9km/h 14.0mph /  22.5km/h 69% 0.00in /  0mm 176 W/m2
12:34 44.0 °F /  6.7 °C 34.5 °F /  1.4 °C 30.13in /  1020.2hPa SSE 7.0mph /  11.3km/h 12.0mph /  19.3km/h 69% 0.00in /  0mm 188 W/m2
12:40 44.4 °F /  6.9 °C 34.9 °F /  1.6 °C 30.13in /  1020.2hPa SSE 5.0mph /  8km/h 8.0mph /  12.9km/h 69% 0.00in /  0mm 149 W/m2
12:46 44.5 °F /  6.9 °C 35.0 °F /  1.7 °C 30.13in /  1020.2hPa SE 4.0mph /  6.4km/h 8.0mph /  12.9km/h 69% 0.00in /  0mm 132 W/m2
12:52 44.5 °F /  6.9 °C 35.3 °F /  1.8 °C 30.13in /  1020.2hPa SSE 3.0mph /  4.8km/h 4.0mph /  6.4km/h 70% 0.00in /  0mm 90 W/m2
12:58 44.5 °F /  6.9 °C 35.0 °F /  1.7 °C 30.14in /  1020.5hPa SSE 1.0mph /  1.6km/h 4.0mph /  6.4km/h 69% 0.00in /  0mm 46 W/m2
13:04 44.4 °F /  6.9 °C 34.5 °F /  1.4 °C 30.14in /  1020.5hPa SSE 4.0mph /  6.4km/h 7.0mph /  11.3km/h 68% 0.00in /  0mm 33 W/m2
13:10 44.2 °F /  6.8 °C 34.3 °F /  1.3 °C 30.14in /  1020.5hPa SSW 7.0mph /  11.3km/h 7.0mph /  11.3km/h 68% 0.00in /  0mm 35 W/m2
13:16 44.1 °F /  6.7 °C 34.6 °F /  1.4 °C 30.15in /  1020.9hPa SSW 6.0mph /  9.7km/h 9.0mph /  14.5km/h 69% 0.00in /  0mm 26 W/m2
13:22 44.0 °F /  6.7 °C 34.8 °F /  1.6 °C 30.15in /  1020.9hPa South 6.0mph /  9.7km/h 6.0mph /  9.7km/h 70% 0.00in /  0mm 30 W/m2
13:28 44.0 °F /  6.7 °C 35.2 °F /  1.8 °C 30.14in /  1020.5hPa SSW 6.0mph /  9.7km/h 7.0mph /  11.3km/h 71% 0.00in /  0mm 30 W/m2
13:34 43.8 °F /  6.6 °C 35.4 °F /  1.9 °C 30.15in /  1020.9hPa ESE 6.0mph /  9.7km/h 7.0mph /  11.3km/h 72% 0.00in /  0mm 28 W/m2
13:40 43.3 °F /  6.3 °C 35.2 °F /  1.8 °C 30.14in /  1020.5hPa SSE 7.0mph /  11.3km/h 9.0mph /  14.5km/h 73% 0.00in /  0mm 44 W/m2
13:46 42.7 °F /  5.9 °C 35.7 °F /  2.1 °C 30.14in /  1020.5hPa SSE 7.0mph /  11.3km/h 9.0mph /  14.5km/h 76% 0.00in /  0mm 33 W/m2
13:52 42.4 °F /  5.8 °C 36.0 °F /  2.2 °C 30.14in /  1020.5hPa SSE 5.0mph /  8km/h 6.0mph /  9.7km/h 78% 0.00in /  0mm 39 W/m2
13:58 41.9 °F /  5.5 °C 35.9 °F /  2.2 °C 30.13in /  1020.2hPa SSE 4.0mph /  6.4km/h 6.0mph /  9.7km/h 79% 0.00in /  0mm 35 W/m2
14:04 41.6 °F /  5.3 °C 35.9 °F /  2.2 °C 30.13in /  1020.2hPa South 5.0mph /  8km/h 6.0mph /  9.7km/h 80% 0.00in /  0mm 30 W/m2
14:10 41.4 °F /  5.2 °C 36.0 °F /  2.2 °C 30.14in /  1020.5hPa South 5.0mph /  8km/h 5.0mph /  8km/h 81% 0.00in /  0mm 16 W/m2
14:16 41.2 °F /  5.1 °C 35.8 °F /  2.1 °C 30.13in /  1020.2hPa South 5.0mph /  8km/h 6.0mph /  9.7km/h 81% 0.00in /  0mm 19 W/m2
14:22 41.3 °F /  5.2 °C 35.9 °F /  2.2 °C 30.14in /  1020.5hPa South 6.0mph /  9.7km/h 6.0mph /  9.7km/h 81% 0.00in /  0mm 32 W/m2
14:28 41.3 °F /  5.2 °C 35.9 °F /  2.2 °C 30.14in /  1020.5hPa SSE 6.0mph /  9.7km/h 9.0mph /  14.5km/h 81% 0.00in /  0mm 26 W/m2
14:34 41.2 °F /  5.1 °C 36.1 °F /  2.3 °C 30.13in /  1020.2hPa SSE 6.0mph /  9.7km/h 12.0mph /  19.3km/h 82% 0.00in /  0mm 21 W/m2
14:40 41.3 °F /  5.2 °C 36.2 °F /  2.3 °C 30.14in /  1020.5hPa SSE 5.0mph /  8km/h 5.0mph /  8km/h 82% 0.00in /  0mm 18 W/m2
14:46 41.3 °F /  5.2 °C 36.2 °F /  2.3 °C 30.15in /  1020.9hPa South 4.0mph /  6.4km/h 7.0mph /  11.3km/h 82% 0.00in /  0mm 14 W/m2
14:52 41.3 °F /  5.2 °C 36.2 °F /  2.3 °C 30.16in /  1021.2hPa SSE 5.0mph /  8km/h 7.0mph /  11.3km/h 82% 0.19in /  4.83mm 16 W/m2
14:58 41.0 °F /  5 °C 36.2 °F /  2.3 °C 30.15in /  1020.9hPa SSE 5.0mph /  8km/h 7.0mph /  11.3km/h 83% 0.08in /  2.03mm 19 W/m2
15:04 40.7 °F /  4.8 °C 36.2 °F /  2.3 °C 30.15in /  1020.9hPa South 4.0mph /  6.4km/h 5.0mph /  8km/h 84% 0.08in /  2.03mm 19 W/m2
15:10 40.5 °F /  4.7 °C 36.3 °F /  2.4 °C 30.15in /  1020.9hPa SE 4.0mph /  6.4km/h 4.0mph /  6.4km/h 85% 0.05in /  1.27mm 23 W/m2
15:16 40.4 °F /  4.7 °C 36.5 °F /  2.5 °C 30.15in /  1020.9hPa SE 3.0mph /  4.8km/h 4.0mph /  6.4km/h 86% 0.00in /  0mm 21 W/m2
15:22 40.3 °F /  4.6 °C 36.4 °F /  2.4 °C 30.14in /  1020.5hPa SE 2.0mph /  3.2km/h 3.0mph /  4.8km/h 86% 0.00in /  0mm 23 W/m2
15:28 40.3 °F /  4.6 °C 36.7 °F /  2.6 °C 30.14in /  1020.5hPa SE 2.0mph /  3.2km/h 3.0mph /  4.8km/h 87% 0.00in /  0mm 23 W/m2
15:34 40.2 °F /  4.6 °C 36.6 °F /  2.6 °C 30.13in /  1020.2hPa SSE 2.0mph /  3.2km/h 3.0mph /  4.8km/h 87% 0.00in /  0mm 32 W/m2
15:40 40.2 °F /  4.6 °C 36.6 °F /  2.6 °C 30.13in /  1020.2hPa SSE 2.0mph /  3.2km/h 2.0mph /  3.2km/h 87% 0.00in /  0mm 26 W/m2
15:46 40.1 °F /  4.5 °C 36.5 °F /  2.5 °C 30.13in /  1020.2hPa ESE 3.0mph /  4.8km/h 8.0mph /  12.9km/h 87% 0.00in /  0mm 18 W/m2
15:52 40.0 °F /  4.4 °C 36.7 °F /  2.6 °C 30.13in /  1020.2hPa SE 3.0mph /  4.8km/h 7.0mph /  11.3km/h 88% 0.00in /  0mm 32 W/m2
15:58 40.1 °F /  4.5 °C 36.8 °F /  2.7 °C 30.13in /  1020.2hPa SE 4.0mph /  6.4km/h 7.0mph /  11.3km/h 88% 0.00in /  0mm 19 W/m2
16:04 40.0 °F /  4.4 °C 36.7 °F /  2.6 °C 30.12in /  1019.9hPa SE 4.0mph /  6.4km/h 4.0mph /  6.4km/h 88% 0.00in /  0mm 21 W/m2
16:10 39.9 °F /  4.4 °C 36.6 °F /  2.6 °C 30.13in /  1020.2hPa SE 4.0mph /  6.4km/h 4.0mph /  6.4km/h 88% 0.00in /  0mm 18 W/m2
16:16 40.0 °F /  4.4 °C 37.0 °F /  2.8 °C 30.13in /  1020.2hPa SE 4.0mph /  6.4km/h 5.0mph /  8km/h 89% 0.00in /  0mm 28 W/m2
16:22 40.1 °F /  4.5 °C 37.1 °F /  2.8 °C 30.13in /  1020.2hPa SE 3.0mph /  4.8km/h 3.0mph /  4.8km/h 89% 0.00in /  0mm 26 W/m2
16:28 40.0 °F /  4.4 °C 37.0 °F /  2.8 °C 30.13in /  1020.2hPa SE 1.0mph /  1.6km/h 3.0mph /  4.8km/h 89% 0.00in /  0mm 19 W/m2
16:34 39.9 °F /  4.4 °C 36.9 °F /  2.7 °C 30.13in /  1020.2hPa Calm   2.0mph /  3.2km/h 89% 0.00in /  0mm 16 W/m2
16:46 39.5 °F /  4.2 °C 36.5 °F /  2.5 °C 30.13in /  1020.2hPa ENE 2.0mph /  3.2km/h 4.0mph /  6.4km/h 89% 0.00in /  0mm 11 W/m2
16:52 39.2 °F /  4 °C 36.5 °F /  2.5 °C 30.13in /  1020.2hPa ENE 1.0mph /  1.6km/h 2.0mph /  3.2km/h 90% 0.00in /  0mm 9 W/m2
16:58 39.1 °F /  3.9 °C 36.4 °F /  2.4 °C 30.13in /  1020.2hPa ENE 2.0mph /  3.2km/h 4.0mph /  6.4km/h 90% 0.00in /  0mm 5 W/m2
17:04 39.0 °F /  3.9 °C 36.3 °F /  2.4 °C 30.13in /  1020.2hPa ENE 2.0mph /  3.2km/h 4.0mph /  6.4km/h 90% 0.00in /  0mm 5 W/m2
17:10 38.8 °F /  3.8 °C 36.1 °F /  2.3 °C 30.13in /  1020.2hPa ENE 2.0mph /  3.2km/h 2.0mph /  3.2km/h 90% 0.00in /  0mm 5 W/m2
17:16 38.7 °F /  3.7 °C 36.0 °F /  2.2 °C 30.13in /  1020.2hPa ENE 1.0mph /  1.6km/h 2.0mph /  3.2km/h 90% 0.00in /  0mm 0 W/m2
17:22 38.7 °F /  3.7 °C 36.3 °F /  2.4 °C 30.13in /  1020.2hPa ENE 1.0mph /  1.6km/h 1.0mph /  1.6km/h 91% 0.00in /  0mm 0 W/m2
17:28 38.6 °F /  3.7 °C 36.2 °F /  2.3 °C 30.13in /  1020.2hPa ENE 1.0mph /  1.6km/h 2.0mph /  3.2km/h 91% 0.04in /  1.02mm 0 W/m2
17:34 38.7 °F /  3.7 °C 36.3 °F /  2.4 °C 30.13in /  1020.2hPa ENE 1.0mph /  1.6km/h 1.0mph /  1.6km/h 91% 0.04in /  1.02mm 0 W/m2
17:40 38.8 °F /  3.8 °C 36.4 °F /  2.4 °C 30.13in /  1020.2hPa Calm   1.0mph /  1.6km/h 91% 0.05in /  1.27mm 0 W/m2
17:46 38.6 °F /  3.7 °C 36.2 °F /  2.3 °C 30.13in /  1020.2hPa Calm   1.0mph /  1.6km/h 91% 0.13in /  3.3mm 0 W/m2
17:52 38.5 °F /  3.6 °C 36.1 °F /  2.3 °C 30.13in /  1020.2hPa Calm     91% 0.10in /  2.54mm 0 W/m2
17:58 38.2 °F /  3.4 °C 35.8 °F /  2.1 °C 30.13in /  1020.2hPa Calm   1.0mph /  1.6km/h 91% 0.12in /  3.05mm 0 W/m2
18:04 38.4 °F /  3.6 °C 36.3 °F /  2.4 °C 30.13in /  1020.2hPa ENE 1.0mph /  1.6km/h 2.0mph /  3.2km/h 92% 0.07in /  1.78mm 0 W/m2
18:10 38.3 °F /  3.5 °C 36.2 °F /  2.3 °C 30.13in /  1020.2hPa ENE 2.0mph /  3.2km/h 2.0mph /  3.2km/h 92% 0.09in /  2.29mm 0 W/m2
18:16 38.3 °F /  3.5 °C 36.2 °F /  2.3 °C 30.13in /  1020.2hPa ENE 1.0mph /  1.6km/h 2.0mph /  3.2km/h 92% 0.09in /  2.29mm 0 W/m2
18:22 38.4 °F /  3.6 °C 36.3 °F /  2.4 °C 30.13in /  1020.2hPa ENE 1.0mph /  1.6km/h 2.0mph /  3.2km/h 92% 0.16in /  4.06mm 0 W/m2
18:28 38.3 °F /  3.5 °C 36.2 °F /  2.3 °C 30.13in /  1020.2hPa ENE 2.0mph /  3.2km/h 3.0mph /  4.8km/h 92% 0.17in /  4.32mm 0 W/m2
18:34 38.5 °F /  3.6 °C 36.4 °F /  2.4 °C 30.13in /  1020.2hPa ENE 2.0mph /  3.2km/h 3.0mph /  4.8km/h 92% 0.11in /  2.79mm 0 W/m2
18:40 38.4 °F /  3.6 °C 36.3 °F /  2.4 °C 30.13in /  1020.2hPa ENE 2.0mph /  3.2km/h 2.0mph /  3.2km/h 92% 0.14in /  3.56mm 0 W/m2
18:46 38.5 °F /  3.6 °C 36.4 °F /  2.4 °C 30.12in /  1019.9hPa ENE 2.0mph /  3.2km/h 3.0mph /  4.8km/h 92% 0.10in /  2.54mm 0 W/m2
18:52 38.7 °F /  3.7 °C 36.6 °F /  2.6 °C 30.12in /  1019.9hPa ENE 2.0mph /  3.2km/h 2.0mph /  3.2km/h 92% 0.09in /  2.29mm 0 W/m2
18:58 38.8 °F /  3.8 °C 36.7 °F /  2.6 °C 30.12in /  1019.9hPa ENE 1.0mph /  1.6km/h 3.0mph /  4.8km/h 92% 0.30in /  7.62mm 0 W/m2
19:04 38.9 °F /  3.8 °C 37.0 °F /  2.8 °C 30.12in /  1019.9hPa ENE 1.0mph /  1.6km/h 3.0mph /  4.8km/h 93% 0.13in /  3.3mm 0 W/m2
19:10 38.8 °F /  3.8 °C 36.9 °F /  2.7 °C 30.11in /  1019.5hPa ENE 1.0mph /  1.6km/h 2.0mph /  3.2km/h 93% 0.14in /  3.56mm 0 W/m2
19:16 38.9 °F /  3.8 °C 36.8 °F /  2.7 °C 30.11in /  1019.5hPa East 2.0mph /  3.2km/h 2.0mph /  3.2km/h 92% 0.14in /  3.56mm 0 W/m2
19:22 39.1 °F /  3.9 °C 37.2 °F /  2.9 °C 30.10in /  1019.2hPa ENE 3.0mph /  4.8km/h 3.0mph /  4.8km/h 93% 0.09in /  2.29mm 0 W/m2
19:28 39.1 °F /  3.9 °C 37.2 °F /  2.9 °C 30.09in /  1018.8hPa ENE 3.0mph /  4.8km/h 4.0mph /  6.4km/h 93% 0.05in /  1.27mm 0 W/m2
19:34 39.3 °F /  4.1 °C 37.4 °F /  3 °C 30.09in /  1018.8hPa East 3.0mph /  4.8km/h 3.0mph /  4.8km/h 93% 0.00in /  0mm 0 W/m2
19:40 39.5 °F /  4.2 °C 37.6 °F /  3.1 °C 30.09in /  1018.8hPa ENE 2.0mph /  3.2km/h 3.0mph /  4.8km/h 93% 0.00in /  0mm 0 W/m2
19:46 39.4 °F /  4.1 °C 37.5 °F /  3.1 °C 30.08in /  1018.5hPa ENE 3.0mph /  4.8km/h 5.0mph /  8km/h 93% 0.00in /  0mm 0 W/m2
19:52 39.0 °F /  3.9 °C 37.1 °F /  2.8 °C 30.08in /  1018.5hPa ENE 3.0mph /  4.8km/h 3.0mph /  4.8km/h 93% 0.00in /  0mm 0 W/m2
19:58 39.1 °F /  3.9 °C 37.2 °F /  2.9 °C 30.08in /  1018.5hPa ENE 2.0mph /  3.2km/h 3.0mph /  4.8km/h 93% 0.00in /  0mm 0 W/m2
20:04 39.2 °F /  4 °C 37.3 °F /  2.9 °C 30.08in /  1018.5hPa NE 2.0mph /  3.2km/h 4.0mph /  6.4km/h 93% 0.00in /  0mm 0 W/m2
20:10 39.5 °F /  4.2 °C 37.6 °F /  3.1 °C 30.08in /  1018.5hPa NE 2.0mph /  3.2km/h 3.0mph /  4.8km/h 93% 0.00in /  0mm 0 W/m2
20:16 39.4 °F /  4.1 °C 37.5 °F /  3.1 °C 30.08in /  1018.5hPa NE 3.0mph /  4.8km/h 4.0mph /  6.4km/h 93% 0.00in /  0mm 0 W/m2
20:22 39.6 °F /  4.2 °C 37.7 °F /  3.2 °C 30.08in /  1018.5hPa NE 3.0mph /  4.8km/h 6.0mph /  9.7km/h 93% 0.00in /  0mm 0 W/m2
20:28 39.5 °F /  4.2 °C 37.6 °F /  3.1 °C 30.08in /  1018.5hPa ENE 3.0mph /  4.8km/h 6.0mph /  9.7km/h 93% 0.00in /  0mm 0 W/m2
20:34 39.3 °F /  4.1 °C 37.4 °F /  3 °C 30.09in /  1018.8hPa ENE 2.0mph /  3.2km/h 3.0mph /  4.8km/h 93% 0.00in /  0mm 0 W/m2
20:40 39.1 °F /  3.9 °C 37.2 °F /  2.9 °C 30.09in /  1018.8hPa ENE 1.0mph /  1.6km/h 1.0mph /  1.6km/h 93% 0.00in /  0mm 0 W/m2
20:46 38.6 °F /  3.7 °C 36.8 °F /  2.7 °C 30.10in /  1019.2hPa Calm   1.0mph /  1.6km/h 93% 0.00in /  0mm 0 W/m2
20:52 38.2 °F /  3.4 °C 36.4 °F /  2.4 °C 30.10in /  1019.2hPa Calm   1.0mph /  1.6km/h 93% 0.00in /  0mm 0 W/m2
20:58 38.0 °F /  3.3 °C 36.2 °F /  2.3 °C 30.10in /  1019.2hPa ENE 1.0mph /  1.6km/h 1.0mph /  1.6km/h 93% 0.00in /  0mm 0 W/m2
21:04 38.0 °F /  3.3 °C 36.2 °F /  2.3 °C 30.10in /  1019.2hPa ENE 1.0mph /  1.6km/h 1.0mph /  1.6km/h 93% 0.00in /  0mm 0 W/m2
21:10 38.0 °F /  3.3 °C 36.2 °F /  2.3 °C 30.09in /  1018.8hPa ENE 1.0mph /  1.6km/h 1.0mph /  1.6km/h 93% 0.00in /  0mm 0 W/m2
21:16 37.5 °F /  3.1 °C 35.7 °F /  2.1 °C 30.09in /  1018.8hPa Calm   2.0mph /  3.2km/h 93% 0.00in /  0mm 0 W/m2
21:22 37.7 °F /  3.2 °C 35.9 °F /  2.2 °C 30.09in /  1018.8hPa ENE 1.0mph /  1.6km/h 1.0mph /  1.6km/h 93% 0.00in /  0mm 0 W/m2
21:28 37.6 °F /  3.1 °C 35.8 °F /  2.1 °C 30.09in /  1018.8hPa ENE 1.0mph /  1.6km/h 1.0mph /  1.6km/h 93% 0.00in /  0mm 0 W/m2
21:34 37.9 °F /  3.3 °C 36.1 °F /  2.3 °C 30.09in /  1018.8hPa ENE 1.0mph /  1.6km/h 1.0mph /  1.6km/h 93% 0.00in /  0mm 0 W/m2
21:40 38.1 °F /  3.4 °C 36.3 °F /  2.4 °C 30.08in /  1018.5hPa ENE 1.0mph /  1.6km/h 2.0mph /  3.2km/h 93% 0.00in /  0mm 0 W/m2
21:46 38.8 °F /  3.8 °C 36.9 °F /  2.7 °C 30.08in /  1018.5hPa ENE 1.0mph /  1.6km/h 2.0mph /  3.2km/h 93% 0.00in /  0mm 0 W/m2
21:52 38.6 °F /  3.7 °C 36.8 °F /  2.7 °C 30.08in /  1018.5hPa ENE 1.0mph /  1.6km/h 2.0mph /  3.2km/h 93% 0.00in /  0mm 0 W/m2
21:58 38.5 °F /  3.6 °C 36.7 °F /  2.6 °C 30.08in /  1018.5hPa ENE 1.0mph /  1.6km/h 2.0mph /  3.2km/h 93% 0.00in /  0mm 0 W/m2
22:04 38.3 °F /  3.5 °C 36.7 °F /  2.6 °C 30.08in /  1018.5hPa ENE 1.0mph /  1.6km/h 1.0mph /  1.6km/h 94% 0.05in /  1.27mm 0 W/m2
22:10 38.5 °F /  3.6 °C 36.7 °F /  2.6 °C 30.08in /  1018.5hPa Calm     93% 0.05in /  1.27mm 0 W/m2
22:16 38.7 °F /  3.7 °C 36.9 °F /  2.7 °C 30.08in /  1018.5hPa Calm     93% 0.05in /  1.27mm 0 W/m2
22:22 39.0 °F /  3.9 °C 37.4 °F /  3 °C 30.09in /  1018.8hPa Calm     94% 0.00in /  0mm 0 W/m2
22:28 39.0 °F /  3.9 °C 37.4 °F /  3 °C 30.08in /  1018.5hPa Calm   1.0mph /  1.6km/h 94% 0.00in /  0mm 0 W/m2
22:34 40.4 °F /  4.7 °C 38.8 °F /  3.8 °C 30.08in /  1018.5hPa ENE 1.0mph /  1.6km/h 3.0mph /  4.8km/h 94% 0.00in /  0mm 0 W/m2
22:40 43.5 °F /  6.4 °C 41.9 °F /  5.5 °C 30.09in /  1018.8hPa SE 2.0mph /  3.2km/h 2.0mph /  3.2km/h 94% 0.00in /  0mm 0 W/m2
22:46 44.1 °F /  6.7 °C 42.5 °F /  5.8 °C 30.08in /  1018.5hPa SE 2.0mph /  3.2km/h 2.0mph /  3.2km/h 94% 0.00in /  0mm 0 W/m2
22:52 44.1 °F /  6.7 °C 42.5 °F /  5.8 °C 30.09in /  1018.8hPa SE 1.0mph /  1.6km/h 1.0mph /  1.6km/h 94% 0.00in /  0mm 0 W/m2
22:58 43.6 °F /  6.4 °C 42.0 °F /  5.6 °C 30.08in /  1018.5hPa Calm   1.0mph /  1.6km/h 94% 0.00in /  0mm 0 W/m2
23:04 43.9 °F /  6.6 °C 42.3 °F /  5.7 °C 30.08in /  1018.5hPa SE 1.0mph /  1.6km/h 2.0mph /  3.2km/h 94% 0.00in /  0mm 0 W/m2
23:10 43.7 °F /  6.5 °C 42.1 °F /  5.6 °C 30.08in /  1018.5hPa Calm     94% 0.00in /  0mm 0 W/m2
23:16 43.2 °F /  6.2 °C 41.6 °F /  5.3 °C 30.08in /  1018.5hPa Calm   1.0mph /  1.6km/h 94% 0.00in /  0mm 0 W/m2
23:22 43.4 °F /  6.3 °C 41.8 °F /  5.4 °C 30.08in /  1018.5hPa Calm   1.0mph /  1.6km/h 94% 0.05in /  1.27mm 0 W/m2
23:28 43.0 °F /  6.1 °C 41.4 °F /  5.2 °C 30.08in /  1018.5hPa Calm   1.0mph /  1.6km/h 94% 0.05in /  1.27mm 0 W/m2
23:34 42.6 °F /  5.9 °C 41.0 °F /  5 °C 30.08in /  1018.5hPa Calm   1.0mph /  1.6km/h 94% 0.04in /  1.02mm 0 W/m2
23:40 42.7 °F /  5.9 °C 41.1 °F /  5.1 °C 30.08in /  1018.5hPa Calm     94% 0.00in /  0mm 0 W/m2
23:46 43.5 °F /  6.4 °C 41.9 °F /  5.5 °C 30.08in /  1018.5hPa SE 1.0mph /  1.6km/h 1.0mph /  1.6km/h 94% 0.00in /  0mm 0 W/m2
23:52 43.8 °F /  6.6 °C 42.2 °F /  5.7 °C 30.08in /  1018.5hPa SE 1.0mph /  1.6km/h 1.0mph /  1.6km/h 94% 0.06in /  1.52mm 0 W/m2
23:58 43.2 °F /  6.2 °C 41.6 °F /  5.3 °C 30.08in /  1018.5hPa Calm   1.0mph /  1.6km/h 94% 0.06in /  1.52mm 0 W/m2
Country Meadow, Clay, NY, USA
Compliments of Weather Underground - 2 mb